sensor_id;sensor_type;location;lat;lon;timestamp;pressure;altitude;pressure_sealevel;temperature;humidity
10097;BME280;5087;42.662;23.466;2023-06-22T00:02:02;95828.97;;;16.77;100.00
10097;BME280;5087;42.662;23.466;2023-06-22T00:04:30;95807.97;;;16.69;100.00
10097;BME280;5087;42.662;23.466;2023-06-22T00:06:57;95802.25;;;16.74;100.00
10097;BME280;5087;42.662;23.466;2023-06-22T00:09:26;95811.63;;;16.73;100.00
10097;BME280;5087;42.662;23.466;2023-06-22T00:11:53;95808.44;;;16.71;100.00
10097;BME280;5087;42.662;23.466;2023-06-22T00:14:21;95811.19;;;16.71;100.00
10097;BME280;5087;42.662;23.466;2023-06-22T00:16:48;95801.38;;;16.58;100.00
10097;BME280;5087;42.662;23.466;2023-06-22T00:19:20;95816.22;;;16.57;100.00
10097;BME280;5087;42.662;23.466;2023-06-22T00:21:47;95810.53;;;16.50;100.00
10097;BME280;5087;42.662;23.466;2023-06-22T00:24:18;95812.09;;;16.63;100.00
10097;BME280;5087;42.662;23.466;2023-06-22T00:26:48;95807.19;;;16.69;100.00
10097;BME280;5087;42.662;23.466;2023-06-22T00:29:15;95790.19;;;16.38;100.00
10097;BME280;5087;42.662;23.466;2023-06-22T00:31:44;95785.09;;;16.24;100.00
10097;BME280;5087;42.662;23.466;2023-06-22T00:34:11;95792.16;;;16.25;100.00
10097;BME280;5087;42.662;23.466;2023-06-22T00:36:38;95790.91;;;16.23;100.00
10097;BME280;5087;42.662;23.466;2023-06-22T00:39:06;95794.34;;;16.20;100.00
10097;BME280;5087;42.662;23.466;2023-06-22T00:41:34;95790.66;;;16.16;100.00
10097;BME280;5087;42.662;23.466;2023-06-22T00:44:05;95779.25;;;16.01;100.00
10097;BME280;5087;42.662;23.466;2023-06-22T00:46:34;95793.06;;;16.05;100.00
10097;BME280;5087;42.662;23.466;2023-06-22T00:49:01;95793.31;;;16.00;100.00
10097;BME280;5087;42.662;23.466;2023-06-22T00:51:31;95793.06;;;15.92;100.00
10097;BME280;5087;42.662;23.466;2023-06-22T00:54:02;95802.31;;;15.88;100.00
10097;BME280;5087;42.662;23.466;2023-06-22T00:56:32;95801.69;;;15.82;100.00
10097;BME280;5087;42.662;23.466;2023-06-22T00:59:02;95781.22;;;15.67;100.00
10097;BME280;5087;42.662;23.466;2023-06-22T01:01:31;95795.97;;;15.75;100.00
10097;BME280;5087;42.662;23.466;2023-06-22T01:03:59;95781.47;;;15.62;100.00
10097;BME280;5087;42.662;23.466;2023-06-22T01:06:38;95795.38;;;15.57;100.00
10097;BME280;5087;42.662;23.466;2023-06-22T01:09:14;95802.88;;;15.47;100.00
10097;BME280;5087;42.662;23.466;2023-06-22T01:11:45;95800.78;;;15.32;100.00
10097;BME280;5087;42.662;23.466;2023-06-22T01:14:19;95807.34;;;15.18;100.00
10097;BME280;5087;42.662;23.466;2023-06-22T01:16:51;95802.97;;;15.05;100.00
10097;BME280;5087;42.662;23.466;2023-06-22T01:19:37;95803.22;;;14.91;100.00
10097;BME280;5087;42.662;23.466;2023-06-22T01:22:08;95802.16;;;14.83;100.00
10097;BME280;5087;42.662;23.466;2023-06-22T01:24:48;95802.81;;;14.80;100.00
10097;BME280;5087;42.662;23.466;2023-06-22T01:27:32;95806.69;;;14.79;100.00
10097;BME280;5087;42.662;23.466;2023-06-22T01:30:03;95816.84;;;14.79;100.00
10097;BME280;5087;42.662;23.466;2023-06-22T01:32:35;95815.22;;;14.78;100.00
10097;BME280;5087;42.662;23.466;2023-06-22T01:35:06;95797.31;;;14.59;100.00
10097;BME280;5087;42.662;23.466;2023-06-22T01:37:35;95814.41;;;14.98;100.00
10097;BME280;5087;42.662;23.466;2023-06-22T01:40:04;95795.06;;;15.03;100.00
10097;BME280;5087;42.662;23.466;2023-06-22T01:42:32;95815.47;;;15.06;100.00
10097;BME280;5087;42.662;23.466;2023-06-22T01:45:00;95816.94;;;15.03;100.00
10097;BME280;5087;42.662;23.466;2023-06-22T01:47:29;95821.06;;;15.10;100.00
10097;BME280;5087;42.662;23.466;2023-06-22T01:49:57;95830.03;;;14.98;100.00
10097;BME280;5087;42.662;23.466;2023-06-22T01:52:25;95824.28;;;15.12;100.00
10097;BME280;5087;42.662;23.466;2023-06-22T01:54:52;95826.00;;;15.16;100.00
10097;BME280;5087;42.662;23.466;2023-06-22T01:57:19;95816.28;;;15.07;100.00
10097;BME280;5087;42.662;23.466;2023-06-22T01:59:52;95818.63;;;14.96;100.00
10097;BME280;5087;42.662;23.466;2023-06-22T02:02:29;95830.16;;;15.01;100.00
10097;BME280;5087;42.662;23.466;2023-06-22T02:05:05;95822.97;;;14.97;100.00
10097;BME280;5087;42.662;23.466;2023-06-22T02:07:36;95822.84;;;14.93;100.00
10097;BME280;5087;42.662;23.466;2023-06-22T02:10:07;95818.41;;;14.80;100.00
10097;BME280;5087;42.662;23.466;2023-06-22T02:12:38;95831.34;;;14.92;100.00
10097;BME280;5087;42.662;23.466;2023-06-22T02:15:07;95839.06;;;15.11;100.00
10097;BME280;5087;42.662;23.466;2023-06-22T02:17:37;95843.88;;;14.93;100.00
10097;BME280;5087;42.662;23.466;2023-06-22T02:20:05;95813.50;;;14.73;100.00
10097;BME280;5087;42.662;23.466;2023-06-22T02:22:35;95823.34;;;14.86;100.00
10097;BME280;5087;42.662;23.466;2023-06-22T02:25:02;95826.56;;;14.88;100.00
10097;BME280;5087;42.662;23.466;2023-06-22T02:27:33;95823.16;;;14.92;100.00
10097;BME280;5087;42.662;23.466;2023-06-22T02:30:01;95818.94;;;14.94;100.00
10097;BME280;5087;42.662;23.466;2023-06-22T02:32:31;95823.63;;;15.15;100.00
10097;BME280;5087;42.662;23.466;2023-06-22T02:35:01;95825.75;;;15.09;100.00
10097;BME280;5087;42.662;23.466;2023-06-22T02:37:30;95816.28;;;15.07;100.00
10097;BME280;5087;42.662;23.466;2023-06-22T02:39:57;95805.22;;;15.03;100.00
10097;BME280;5087;42.662;23.466;2023-06-22T02:42:25;95800.00;;;15.10;100.00
10097;BME280;5087;42.662;23.466;2023-06-22T02:44:55;95831.22;;;15.09;100.00
10097;BME280;5087;42.662;23.466;2023-06-22T02:47:22;95826.41;;;15.06;100.00
10097;BME280;5087;42.662;23.466;2023-06-22T02:49:50;95835.91;;;15.09;100.00
10097;BME280;5087;42.662;23.466;2023-06-22T02:52:19;95823.00;;;15.09;100.00
10097;BME280;5087;42.662;23.466;2023-06-22T02:54:46;95821.63;;;15.03;100.00
10097;BME280;5087;42.662;23.466;2023-06-22T02:57:14;95833.47;;;15.07;100.00
10097;BME280;5087;42.662;23.466;2023-06-22T02:59:43;95841.25;;;15.05;100.00
10097;BME280;5087;42.662;23.466;2023-06-22T03:02:12;95815.63;;;14.88;100.00
10097;BME280;5087;42.662;23.466;2023-06-22T03:04:40;95843.50;;;15.03;100.00
10097;BME280;5087;42.662;23.466;2023-06-22T03:07:08;95845.41;;;15.02;100.00
10097;BME280;5087;42.662;23.466;2023-06-22T03:09:36;95840.28;;;15.01;100.00
10097;BME280;5087;42.662;23.466;2023-06-22T03:12:04;95846.22;;;15.03;100.00
10097;BME280;5087;42.662;23.466;2023-06-22T03:14:48;95844.50;;;15.19;100.00
10097;BME280;5087;42.662;23.466;2023-06-22T03:17:16;95831.34;;;15.13;100.00
10097;BME280;5087;42.662;23.466;2023-06-22T03:19:43;95837.56;;;15.22;100.00
10097;BME280;5087;42.662;23.466;2023-06-22T03:22:10;95827.81;;;15.12;100.00
10097;BME280;5087;42.662;23.466;2023-06-22T03:24:39;95829.47;;;15.26;100.00
10097;BME280;5087;42.662;23.466;2023-06-22T03:27:07;95846.38;;;15.40;100.00
10097;BME280;5087;42.662;23.466;2023-06-22T03:29:34;95852.63;;;15.62;100.00
10097;BME280;5087;42.662;23.466;2023-06-22T03:32:02;95857.09;;;15.79;100.00
10097;BME280;5087;42.662;23.466;2023-06-22T03:34:31;95846.00;;;15.96;100.00
10097;BME280;5087;42.662;23.466;2023-06-22T03:36:59;95856.88;;;16.05;100.00
10097;BME280;5087;42.662;23.466;2023-06-22T03:39:27;95865.56;;;16.20;100.00
10097;BME280;5087;42.662;23.466;2023-06-22T03:41:55;95845.47;;;16.28;100.00
10097;BME280;5087;42.662;23.466;2023-06-22T03:44:23;95845.69;;;16.35;100.00
10097;BME280;5087;42.662;23.466;2023-06-22T03:46:51;95860.97;;;16.61;100.00
10097;BME280;5087;42.662;23.466;2023-06-22T03:49:18;95861.53;;;16.79;100.00
10097;BME280;5087;42.662;23.466;2023-06-22T03:51:45;95863.16;;;16.92;100.00
10097;BME280;5087;42.662;23.466;2023-06-22T03:54:13;95866.22;;;17.03;100.00
10097;BME280;5087;42.662;23.466;2023-06-22T03:56:40;95863.16;;;17.21;100.00
10097;BME280;5087;42.662;23.466;2023-06-22T03:59:08;95853.63;;;16.90;100.00
10097;BME280;5087;42.662;23.466;2023-06-22T04:01:36;95869.84;;;17.07;100.00
10097;BME280;5087;42.662;23.466;2023-06-22T04:04:04;95870.81;;;17.28;100.00
10097;BME280;5087;42.662;23.466;2023-06-22T04:06:31;95850.00;;;17.27;100.00
10097;BME280;5087;42.662;23.466;2023-06-22T04:08:59;95866.00;;;17.65;100.00
10097;BME280;5087;42.662;23.466;2023-06-22T04:11:27;95847.66;;;17.69;100.00
10097;BME280;5087;42.662;23.466;2023-06-22T04:13:54;95865.47;;;17.76;100.00
10097;BME280;5087;42.662;23.466;2023-06-22T04:16:22;95876.78;;;17.58;100.00
10097;BME280;5087;42.662;23.466;2023-06-22T04:18:49;95865.91;;;17.62;100.00
10097;BME280;5087;42.662;23.466;2023-06-22T04:21:17;95859.78;;;17.68;100.00
10097;BME280;5087;42.662;23.466;2023-06-22T04:23:45;95866.28;;;17.76;100.00
10097;BME280;5087;42.662;23.466;2023-06-22T04:26:13;95874.34;;;17.85;100.00
10097;BME280;5087;42.662;23.466;2023-06-22T04:28:40;95856.00;;;17.73;100.00
10097;BME280;5087;42.662;23.466;2023-06-22T04:31:08;95854.06;;;17.74;100.00
10097;BME280;5087;42.662;23.466;2023-06-22T04:33:36;95852.56;;;17.76;100.00
10097;BME280;5087;42.662;23.466;2023-06-22T04:36:06;95835.22;;;17.88;100.00
10097;BME280;5087;42.662;23.466;2023-06-22T04:38:33;95847.47;;;17.62;100.00
10097;BME280;5087;42.662;23.466;2023-06-22T04:41:00;95837.81;;;17.68;100.00
10097;BME280;5087;42.662;23.466;2023-06-22T04:43:29;95833.06;;;17.81;100.00
10097;BME280;5087;42.662;23.466;2023-06-22T04:45:56;95839.97;;;17.91;100.00
10097;BME280;5087;42.662;23.466;2023-06-22T04:48:29;95830.81;;;17.99;100.00
10097;BME280;5087;42.662;23.466;2023-06-22T04:50:59;95833.91;;;18.30;100.00
10097;BME280;5087;42.662;23.466;2023-06-22T04:53:30;95824.78;;;18.77;100.00
10097;BME280;5087;42.662;23.466;2023-06-22T04:55:58;95827.25;;;19.18;100.00
10097;BME280;5087;42.662;23.466;2023-06-22T04:58:25;95836.41;;;19.42;100.00
10097;BME280;5087;42.662;23.466;2023-06-22T05:00:58;95845.63;;;19.92;100.00
10097;BME280;5087;42.662;23.466;2023-06-22T05:03:28;95855.88;;;19.33;100.00
10097;BME280;5087;42.662;23.466;2023-06-22T05:05:56;95839.66;;;18.41;100.00
10097;BME280;5087;42.662;23.466;2023-06-22T05:08:25;95854.84;;;18.34;100.00
10097;BME280;5087;42.662;23.466;2023-06-22T05:10:54;95878.31;;;18.48;100.00
10097;BME280;5087;42.662;23.466;2023-06-22T05:13:21;95855.72;;;18.23;100.00
10097;BME280;5087;42.662;23.466;2023-06-22T05:15:52;95870.69;;;18.57;100.00
10097;BME280;5087;42.662;23.466;2023-06-22T05:18:27;95836.09;;;17.92;100.00
10097;BME280;5087;42.662;23.466;2023-06-22T05:20:55;95856.28;;;18.80;100.00
10097;BME280;5087;42.662;23.466;2023-06-22T05:23:22;95856.06;;;19.05;100.00
10097;BME280;5087;42.662;23.466;2023-06-22T05:25:51;95868.38;;;18.59;100.00
10097;BME280;5087;42.662;23.466;2023-06-22T05:28:19;95851.38;;;18.22;100.00
10097;BME280;5087;42.662;23.466;2023-06-22T05:30:50;95878.28;;;18.80;100.00
10097;BME280;5087;42.662;23.466;2023-06-22T05:33:17;95876.78;;;18.82;100.00
10097;BME280;5087;42.662;23.466;2023-06-22T05:35:44;95880.00;;;18.53;100.00
10097;BME280;5087;42.662;23.466;2023-06-22T05:38:11;95870.25;;;18.55;100.00
10097;BME280;5087;42.662;23.466;2023-06-22T05:40:41;95881.19;;;18.87;100.00
10097;BME280;5087;42.662;23.466;2023-06-22T05:43:13;95891.63;;;18.62;100.00
10097;BME280;5087;42.662;23.466;2023-06-22T05:45:48;95883.47;;;19.17;100.00
10097;BME280;5087;42.662;23.466;2023-06-22T05:48:15;95893.97;;;19.51;100.00
10097;BME280;5087;42.662;23.466;2023-06-22T05:50:42;95899.13;;;19.52;100.00
10097;BME280;5087;42.662;23.466;2023-06-22T05:53:12;95877.16;;;19.75;100.00
10097;BME280;5087;42.662;23.466;2023-06-22T05:55:39;95874.69;;;20.60;100.00
10097;BME280;5087;42.662;23.466;2023-06-22T05:58:08;95875.47;;;20.56;100.00
10097;BME280;5087;42.662;23.466;2023-06-22T06:00:37;95874.47;;;20.95;100.00
10097;BME280;5087;42.662;23.466;2023-06-22T06:03:04;95885.41;;;21.45;100.00
10097;BME280;5087;42.662;23.466;2023-06-22T06:05:32;95877.63;;;21.55;100.00
10097;BME280;5087;42.662;23.466;2023-06-22T06:08:00;95851.81;;;21.09;100.00
10097;BME280;5087;42.662;23.466;2023-06-22T06:10:28;95853.56;;;21.89;100.00
10097;BME280;5087;42.662;23.466;2023-06-22T06:12:56;95847.66;;;22.32;100.00
10097;BME280;5087;42.662;23.466;2023-06-22T06:15:23;95866.16;;;22.69;100.00
10097;BME280;5087;42.662;23.466;2023-06-22T06:17:52;95864.75;;;22.93;100.00
10097;BME280;5087;42.662;23.466;2023-06-22T06:20:25;95862.66;;;23.43;100.00
10097;BME280;5087;42.662;23.466;2023-06-22T06:22:56;95853.31;;;23.87;100.00
10097;BME280;5087;42.662;23.466;2023-06-22T06:25:25;95845.81;;;23.91;100.00
10097;BME280;5087;42.662;23.466;2023-06-22T06:27:52;95835.56;;;24.10;100.00
10097;BME280;5087;42.662;23.466;2023-06-22T06:30:21;95850.16;;;23.89;100.00
10097;BME280;5087;42.662;23.466;2023-06-22T06:32:49;95837.53;;;23.98;100.00
10097;BME280;5087;42.662;23.466;2023-06-22T06:35:18;95838.59;;;23.61;100.00
10097;BME280;5087;42.662;23.466;2023-06-22T06:37:48;95845.94;;;23.21;100.00
10097;BME280;5087;42.662;23.466;2023-06-22T06:40:17;95836.25;;;23.70;100.00
10097;BME280;5087;42.662;23.466;2023-06-22T06:42:46;95822.47;;;24.61;100.00
10097;BME280;5087;42.662;23.466;2023-06-22T06:45:16;95830.03;;;24.75;100.00
10097;BME280;5087;42.662;23.466;2023-06-22T06:47:44;95840.25;;;25.25;100.00
10097;BME280;5087;42.662;23.466;2023-06-22T06:50:12;95828.22;;;25.60;100.00
10097;BME280;5087;42.662;23.466;2023-06-22T06:52:44;95833.59;;;24.90;100.00
10097;BME280;5087;42.662;23.466;2023-06-22T06:55:12;95828.75;;;25.23;100.00
10097;BME280;5087;42.662;23.466;2023-06-22T06:57:39;95821.56;;;25.43;100.00
10097;BME280;5087;42.662;23.466;2023-06-22T07:00:09;95819.59;;;25.40;100.00
10097;BME280;5087;42.662;23.466;2023-06-22T07:02:51;95809.00;;;24.88;100.00
10097;BME280;5087;42.662;23.466;2023-06-22T07:05:18;95803.72;;;25.23;100.00
10097;BME280;5087;42.662;23.466;2023-06-22T07:07:47;95824.88;;;24.84;100.00
10097;BME280;5087;42.662;23.466;2023-06-22T07:10:19;95807.75;;;26.00;100.00
10097;BME280;5087;42.662;23.466;2023-06-22T07:12:46;95812.09;;;26.61;100.00
10097;BME280;5087;42.662;23.466;2023-06-22T07:15:17;95817.72;;;26.53;100.00
10097;BME280;5087;42.662;23.466;2023-06-22T07:17:44;95821.81;;;26.38;100.00
10097;BME280;5087;42.662;23.466;2023-06-22T07:20:12;95798.53;;;26.63;100.00
10097;BME280;5087;42.662;23.466;2023-06-22T07:22:39;95810.09;;;26.05;100.00
10097;BME280;5087;42.662;23.466;2023-06-22T07:25:09;95800.66;;;25.91;100.00
10097;BME280;5087;42.662;23.466;2023-06-22T07:27:37;95802.44;;;25.56;100.00
10097;BME280;5087;42.662;23.466;2023-06-22T07:30:09;95798.81;;;26.76;100.00
10097;BME280;5087;42.662;23.466;2023-06-22T07:32:37;95797.84;;;26.51;100.00
10097;BME280;5087;42.662;23.466;2023-06-22T07:35:27;95774.38;;;26.00;100.00
10097;BME280;5087;42.662;23.466;2023-06-22T07:38:41;95817.22;;;27.08;100.00
10097;BME280;5087;42.662;23.466;2023-06-22T07:41:13;95784.31;;;26.53;100.00
10097;BME280;5087;42.662;23.466;2023-06-22T07:43:51;95810.44;;;25.33;100.00
10097;BME280;5087;42.662;23.466;2023-06-22T07:46:21;95772.50;;;24.79;100.00
10097;BME280;5087;42.662;23.466;2023-06-22T07:48:59;95770.94;;;24.85;100.00
10097;BME280;5087;42.662;23.466;2023-06-22T07:51:37;95799.91;;;25.80;100.00
10097;BME280;5087;42.662;23.466;2023-06-22T07:54:28;95811.28;;;26.60;100.00
10097;BME280;5087;42.662;23.466;2023-06-22T07:56:57;95806.91;;;26.10;100.00
10097;BME280;5087;42.662;23.466;2023-06-22T07:59:24;95801.34;;;26.63;100.00
10097;BME280;5087;42.662;23.466;2023-06-22T08:01:51;95789.19;;;27.22;100.00
10097;BME280;5087;42.662;23.466;2023-06-22T08:04:18;95802.44;;;26.73;100.00
10097;BME280;5087;42.662;23.466;2023-06-22T08:06:46;95793.53;;;27.58;100.00
10097;BME280;5087;42.662;23.466;2023-06-22T08:09:14;95776.25;;;28.49;100.00
10097;BME280;5087;42.662;23.466;2023-06-22T08:11:42;95781.97;;;28.65;95.20
10097;BME280;5087;42.662;23.466;2023-06-22T08:14:10;95786.31;;;28.70;100.00
10097;BME280;5087;42.662;23.466;2023-06-22T08:16:38;95782.06;;;27.17;100.00
10097;BME280;5087;42.662;23.466;2023-06-22T08:19:06;95786.09;;;27.78;100.00
10097;BME280;5087;42.662;23.466;2023-06-22T08:21:33;95786.22;;;28.26;100.00
10097;BME280;5087;42.662;23.466;2023-06-22T08:24:00;95773.00;;;28.30;100.00
10097;BME280;5087;42.662;23.466;2023-06-22T08:26:27;95774.69;;;28.48;99.95
10097;BME280;5087;42.662;23.466;2023-06-22T08:28:55;95775.78;;;27.75;100.00
10097;BME280;5087;42.662;23.466;2023-06-22T08:31:24;95757.09;;;28.51;96.20
10097;BME280;5087;42.662;23.466;2023-06-22T08:33:52;95761.16;;;29.34;91.54
10097;BME280;5087;42.662;23.466;2023-06-22T08:36:20;95747.22;;;29.87;88.81
10097;BME280;5087;42.662;23.466;2023-06-22T08:38:47;95775.53;;;30.26;76.36
10097;BME280;5087;42.662;23.466;2023-06-22T08:41:16;95758.94;;;29.82;75.63
10097;BME280;5087;42.662;23.466;2023-06-22T08:43:44;95772.13;;;30.51;76.12
10097;BME280;5087;42.662;23.466;2023-06-22T08:46:11;95773.69;;;30.36;79.81
10097;BME280;5087;42.662;23.466;2023-06-22T08:48:40;95782.91;;;29.02;85.95
10097;BME280;5087;42.662;23.466;2023-06-22T08:51:07;95767.66;;;29.67;83.78
10097;BME280;5087;42.662;23.466;2023-06-22T08:53:34;95759.59;;;29.69;83.59
10097;BME280;5087;42.662;23.466;2023-06-22T08:56:02;95767.28;;;28.61;96.19
10097;BME280;5087;42.662;23.466;2023-06-22T08:58:30;95754.97;;;28.35;99.71
10097;BME280;5087;42.662;23.466;2023-06-22T09:00:57;95756.31;;;27.72;100.00
10097;BME280;5087;42.662;23.466;2023-06-22T09:03:29;95743.00;;;28.34;98.05
10097;BME280;5087;42.662;23.466;2023-06-22T09:05:59;95763.53;;;27.69;100.00
10097;BME280;5087;42.662;23.466;2023-06-22T09:08:27;95756.38;;;27.95;100.00
10097;BME280;5087;42.662;23.466;2023-06-22T09:10:54;95730.72;;;29.16;93.25
10097;BME280;5087;42.662;23.466;2023-06-22T09:16:28;95722.00;;;30.70;82.65
10097;BME280;5087;42.662;23.466;2023-06-22T09:18:56;95729.69;;;30.82;82.15
10097;BME280;5087;42.662;23.466;2023-06-22T09:21:24;95751.72;;;31.68;69.83
10097;BME280;5087;42.662;23.466;2023-06-22T09:23:56;95742.31;;;32.27;67.66
10097;BME280;5087;42.662;23.466;2023-06-22T09:26:25;95736.00;;;32.83;66.82
10097;BME280;5087;42.662;23.466;2023-06-22T09:28:55;95735.00;;;31.91;69.31
10097;BME280;5087;42.662;23.466;2023-06-22T09:31:23;95739.81;;;29.60;80.77
10097;BME280;5087;42.662;23.466;2023-06-22T09:33:54;95732.09;;;29.48;84.40
10097;BME280;5087;42.662;23.466;2023-06-22T09:36:21;95732.81;;;30.55;88.58
10097;BME280;5087;42.662;23.466;2023-06-22T09:38:50;95729.16;;;31.17;75.53
10097;BME280;5087;42.662;23.466;2023-06-22T09:41:21;95732.09;;;31.94;68.99
10097;BME280;5087;42.662;23.466;2023-06-22T09:43:48;95706.38;;;31.70;65.29
10097;BME280;5087;42.662;23.466;2023-06-22T09:46:16;95730.03;;;31.56;71.79
10097;BME280;5087;42.662;23.466;2023-06-22T09:48:44;95740.84;;;31.83;64.12
10097;BME280;5087;42.662;23.466;2023-06-22T09:51:11;95728.81;;;31.83;64.74
10097;BME280;5087;42.662;23.466;2023-06-22T09:53:38;95728.84;;;30.98;71.23
10097;BME280;5087;42.662;23.466;2023-06-22T09:56:07;95727.38;;;31.91;65.73
10097;BME280;5087;42.662;23.466;2023-06-22T09:58:40;95730.59;;;32.15;64.57
10097;BME280;5087;42.662;23.466;2023-06-22T10:01:08;95721.63;;;32.20;60.01
10097;BME280;5087;42.662;23.466;2023-06-22T10:03:36;95710.38;;;31.56;64.41
10097;BME280;5087;42.662;23.466;2023-06-22T10:06:06;95716.59;;;31.77;61.72
10097;BME280;5087;42.662;23.466;2023-06-22T10:08:37;95721.16;;;32.09;62.99
10097;BME280;5087;42.662;23.466;2023-06-22T10:11:09;95689.84;;;32.59;58.75
10097;BME280;5087;42.662;23.466;2023-06-22T10:13:36;95707.25;;;32.05;59.75
10097;BME280;5087;42.662;23.466;2023-06-22T10:16:04;95714.25;;;31.20;61.34
10097;BME280;5087;42.662;23.466;2023-06-22T10:18:32;95720.66;;;31.20;59.87
10097;BME280;5087;42.662;23.466;2023-06-22T10:21:00;95710.75;;;32.10;57.29
10097;BME280;5087;42.662;23.466;2023-06-22T10:23:30;95708.88;;;32.90;53.45
10097;BME280;5087;42.662;23.466;2023-06-22T10:25:57;95704.09;;;31.65;57.66
10097;BME280;5087;42.662;23.466;2023-06-22T10:28:25;95675.84;;;30.74;59.92
10097;BME280;5087;42.662;23.466;2023-06-22T10:30:55;95712.84;;;32.18;55.87
10097;BME280;5087;42.662;23.466;2023-06-22T10:33:22;95709.44;;;32.49;56.82
10097;BME280;5087;42.662;23.466;2023-06-22T10:35:50;95700.75;;;32.92;52.36
10097;BME280;5087;42.662;23.466;2023-06-22T10:38:17;95668.19;;;32.81;53.32
10097;BME280;5087;42.662;23.466;2023-06-22T10:40:47;95684.53;;;33.40;51.76
10097;BME280;5087;42.662;23.466;2023-06-22T10:43:14;95691.16;;;33.56;50.16
10097;BME280;5087;42.662;23.466;2023-06-22T10:45:43;95689.06;;;34.19;47.55
10097;BME280;5087;42.662;23.466;2023-06-22T10:48:11;95678.03;;;33.62;47.41
10097;BME280;5087;42.662;23.466;2023-06-22T10:50:38;95679.94;;;32.67;50.92
10097;BME280;5087;42.662;23.466;2023-06-22T10:53:05;95660.31;;;33.21;49.91
10097;BME280;5087;42.662;23.466;2023-06-22T10:55:33;95680.97;;;32.12;54.96
10097;BME280;5087;42.662;23.466;2023-06-22T10:58:00;95681.63;;;31.39;55.69
10097;BME280;5087;42.662;23.466;2023-06-22T11:00:27;95696.50;;;31.10;58.96
10097;BME280;5087;42.662;23.466;2023-06-22T11:02:56;95690.28;;;32.09;56.24
10097;BME280;5087;42.662;23.466;2023-06-22T11:05:24;95692.19;;;31.05;57.98
10097;BME280;5087;42.662;23.466;2023-06-22T11:07:51;95682.50;;;30.18;60.35
10097;BME280;5087;42.662;23.466;2023-06-22T11:10:18;95663.25;;;31.38;56.68
10097;BME280;5087;42.662;23.466;2023-06-22T11:12:45;95663.69;;;32.01;58.18
10097;BME280;5087;42.662;23.466;2023-06-22T11:15:12;95676.84;;;31.52;56.17
10097;BME280;5087;42.662;23.466;2023-06-22T11:17:40;95681.25;;;32.75;55.50
10097;BME280;5087;42.662;23.466;2023-06-22T11:20:10;95672.38;;;32.99;56.45
10097;BME280;5087;42.662;23.466;2023-06-22T11:26:37;95639.59;;;31.78;54.91
10097;BME280;5087;42.662;23.466;2023-06-22T11:32:15;95667.53;;;31.81;57.86
10097;BME280;5087;42.662;23.466;2023-06-22T11:34:51;95657.06;;;31.82;59.10
10097;BME280;5087;42.662;23.466;2023-06-22T11:37:25;95657.97;;;31.53;59.85
10097;BME280;5087;42.662;23.466;2023-06-22T11:39:53;95664.94;;;30.47;64.03
10097;BME280;5087;42.662;23.466;2023-06-22T11:42:59;95656.41;;;30.97;64.35
10097;BME280;5087;42.662;23.466;2023-06-22T11:45:27;95654.72;;;31.29;62.52
10097;BME280;5087;42.662;23.466;2023-06-22T11:47:54;95644.22;;;31.03;62.60
10097;BME280;5087;42.662;23.466;2023-06-22T11:50:21;95654.16;;;31.47;62.90
10097;BME280;5087;42.662;23.466;2023-06-22T11:52:50;95646.22;;;30.60;65.12
10097;BME280;5087;42.662;23.466;2023-06-22T11:55:18;95646.09;;;29.35;72.14
10097;BME280;5087;42.662;23.466;2023-06-22T11:57:54;95656.44;;;28.98;72.36
10097;BME280;5087;42.662;23.466;2023-06-22T12:00:23;95667.47;;;27.70;100.00
10097;BME280;5087;42.662;23.466;2023-06-22T12:02:50;95696.69;;;26.27;100.00
10097;BME280;5087;42.662;23.466;2023-06-22T12:05:19;95710.53;;;25.11;100.00
10097;BME280;5087;42.662;23.466;2023-06-22T12:07:48;95709.53;;;23.75;100.00
10097;BME280;5087;42.662;23.466;2023-06-22T12:10:18;95708.88;;;22.79;100.00
10097;BME280;5087;42.662;23.466;2023-06-22T12:12:45;95712.72;;;22.56;100.00
10097;BME280;5087;42.662;23.466;2023-06-22T12:15:12;95697.78;;;22.71;100.00
10097;BME280;5087;42.662;23.466;2023-06-22T12:17:40;95696.38;;;23.24;100.00
10097;BME280;5087;42.662;23.466;2023-06-22T12:20:08;95668.72;;;23.35;100.00
10097;BME280;5087;42.662;23.466;2023-06-22T12:22:36;95685.00;;;23.69;100.00
10097;BME280;5087;42.662;23.466;2023-06-22T12:25:05;95701.22;;;23.89;100.00
10097;BME280;5087;42.662;23.466;2023-06-22T12:27:33;95685.00;;;23.91;100.00
10097;BME280;5087;42.662;23.466;2023-06-22T12:30:01;95682.22;;;24.13;100.00
10097;BME280;5087;42.662;23.466;2023-06-22T12:32:28;95689.75;;;24.30;100.00
10097;BME280;5087;42.662;23.466;2023-06-22T12:34:56;95692.09;;;24.43;100.00
10097;BME280;5087;42.662;23.466;2023-06-22T12:37:27;95655.28;;;23.88;100.00
10097;BME280;5087;42.662;23.466;2023-06-22T12:39:55;95690.16;;;24.25;100.00
10097;BME280;5087;42.662;23.466;2023-06-22T12:42:22;95686.19;;;24.12;100.00
10097;BME280;5087;42.662;23.466;2023-06-22T12:44:51;95680.63;;;23.90;100.00
10097;BME280;5087;42.662;23.466;2023-06-22T12:47:18;95686.94;;;23.54;100.00
10097;BME280;5087;42.662;23.466;2023-06-22T12:49:46;95684.91;;;23.26;100.00
10097;BME280;5087;42.662;23.466;2023-06-22T12:52:13;95704.63;;;23.06;100.00
10097;BME280;5087;42.662;23.466;2023-06-22T12:54:40;95711.66;;;22.86;100.00
10097;BME280;5087;42.662;23.466;2023-06-22T12:57:08;95677.94;;;22.55;100.00
10097;BME280;5087;42.662;23.466;2023-06-22T12:59:35;95708.41;;;22.62;100.00
10097;BME280;5087;42.662;23.466;2023-06-22T13:02:06;95714.34;;;22.64;100.00
10097;BME280;5087;42.662;23.466;2023-06-22T13:04:39;95682.81;;;22.17;100.00
10097;BME280;5087;42.662;23.466;2023-06-22T13:07:09;95743.56;;;22.65;100.00
10097;BME280;5087;42.662;23.466;2023-06-22T13:09:38;95727.03;;;22.76;100.00
10097;BME280;5087;42.662;23.466;2023-06-22T13:12:06;95730.47;;;23.32;100.00
10097;BME280;5087;42.662;23.466;2023-06-22T13:14:37;95730.47;;;23.43;100.00